Time;durP1;ratioP1;P1;durP2;ratioP2;P2;SDS_P1;SDS_P2;PMS_P1;PMS_P2;Temp;Humidity;BMP_temperature;BMP_pressure;BME280_temperature;BME280_humidity;BME280_pressure;Samples;Min_cycle;Max_cycle;Signal;HPM_P1;HPM_P2
2021/08/10 00:00:05;;;;;;;9.40;2.20;;;;;23.90;100953.20;;;;94614;1201;93419;-54
2021/08/10 00:02:26;;;;;;;8.20;2.30;;;;;23.90;100950.60;;;;94559;1201;93702;-60
2021/08/10 00:04:28;;;;;;;10.00;2.60;;;;;23.90;100954.80;;;;94563;1201;93464;-59
2021/08/10 00:06:30;;;;;;;6.50;2.20;;;;;23.90;100957.40;;;;94595;1194;92523;-52
2021/08/10 00:08:31;;;;;;;8.00;2.00;;;;;23.90;100953.40;;;;94606;1193;92236;-52
2021/08/10 00:10:32;;;;;;;7.60;2.20;;;;;23.90;100953.20;;;;94582;1193;93173;-58
2021/08/10 00:12:34;;;;;;;8.10;2.30;;;;;23.90;100952.20;;;;94615;1201;93368;-59
2021/08/10 00:14:36;;;;;;;6.40;2.20;;;;;23.90;100954.00;;;;94597;1201;93511;-59
2021/08/10 00:16:38;;;;;;;9.00;2.60;;;;;23.90;100952.80;;;;94546;1202;92932;-59
2021/08/10 00:18:39;;;;;;;6.70;2.30;;;;;23.82;100953.60;;;;94564;1201;93789;-59
2021/08/10 00:20:41;;;;;;;7.60;2.60;;;;;23.86;100952.80;;;;94578;1201;93321;-59
2021/08/10 00:22:44;;;;;;;8.40;2.20;;;;;23.80;100948.40;;;;94597;1202;93813;-59
2021/08/10 00:24:45;;;;;;;7.40;2.50;;;;;23.80;100944.00;;;;94592;1200;93715;-59
2021/08/10 00:26:46;;;;;;;7.40;2.60;;;;;23.80;100940.80;;;;94532;1200;92528;-59
2021/08/10 00:28:48;;;;;;;6.60;2.60;;;;;23.80;100941.40;;;;94568;1201;92061;-59
2021/08/10 00:30:49;;;;;;;8.20;2.60;;;;;23.80;100946.40;;;;94569;1201;93774;-52
2021/08/10 00:32:51;;;;;;;7.50;2.60;;;;;23.80;100941.40;;;;94569;1201;93484;-52
2021/08/10 00:34:53;;;;;;;7.10;2.40;;;;;23.80;100946.00;;;;94585;1202;93451;-52
2021/08/10 00:36:55;;;;;;;6.40;2.50;;;;;23.80;100951.00;;;;94597;1201;92471;-59
2021/08/10 00:38:56;;;;;;;7.00;2.20;;;;;23.80;100951.20;;;;94586;1202;93423;-59
2021/08/10 00:40:58;;;;;;;7.60;2.10;;;;;23.80;100950.60;;;;94592;1201;93426;-52
2021/08/10 00:43:00;;;;;;;7.40;2.60;;;;;23.80;100948.00;;;;94597;1202;93265;-52
2021/08/10 00:45:01;;;;;;;7.00;2.40;;;;;23.80;100952.20;;;;94350;1202;92789;-52
2021/08/10 00:47:06;;;;;;;7.80;2.60;;;;;23.80;100955.00;;;;94104;1202;93688;-52
2021/08/10 00:49:07;;;;;;;16.00;2.80;;;;;23.80;100954.60;;;;94552;1201;93062;-53
2021/08/10 00:51:10;;;;;;;6.60;2.60;;;;;23.80;100949.40;;;;94580;1201;92738;-60
2021/08/10 00:53:12;;;;;;;11.40;2.80;;;;;23.80;100952.60;;;;94583;1202;92103;-59
2021/08/10 00:55:13;;;;;;;9.50;3.00;;;;;23.80;100954.00;;;;94547;1202;92330;-52
2021/08/10 00:57:15;;;;;;;8.30;2.70;;;;;23.80;100953.80;;;;94148;1201;93206;-52
2021/08/10 00:59:16;;;;;;;11.10;2.90;;;;;23.80;100953.60;;;;94145;1197;93654;-52
2021/08/10 01:01:18;;;;;;;9.20;2.70;;;;;23.78;100954.00;;;;94600;1195;92509;-58
2021/08/10 01:03:19;;;;;;;11.60;3.30;;;;;23.74;100957.20;;;;94603;1201;93176;-59
2021/08/10 01:05:21;;;;;;;7.10;2.40;;;;;23.76;100961.00;;;;94361;1201;92807;-52
2021/08/10 01:07:52;;;;;;;7.30;2.50;;;;;23.76;100953.80;;;;94398;1201;93120;-52
2021/08/10 01:10:02;;;;;;;8.20;2.70;;;;;23.74;100951.80;;;;94562;1201;93650;-52
2021/08/10 01:12:06;;;;;;;8.70;2.80;;;;;23.72;100947.20;;;;94382;1201;93687;-52
2021/08/10 01:14:21;;;;;;;8.20;2.90;;;;;23.70;100948.60;;;;94602;1193;92395;-52
2021/08/10 01:16:36;;;;;;;8.40;2.60;;;;;23.70;100942.80;;;;94594;1201;93208;-58
2021/08/10 01:18:41;;;;;;;6.80;2.40;;;;;23.70;100943.80;;;;94557;1201;93155;-59
2021/08/10 01:21:19;;;;;;;7.20;2.60;;;;;23.70;100942.60;;;;94109;1201;93621;-52
2021/08/10 01:23:26;;;;;;;7.10;2.70;;;;;23.70;100941.80;;;;94563;1193;92543;-52
2021/08/10 01:25:43;;;;;;;8.10;2.60;;;;;23.70;100945.00;;;;94568;1201;93439;-58
2021/08/10 01:27:56;;;;;;;7.80;2.70;;;;;23.70;100942.60;;;;94399;1201;93212;-58
2021/08/10 01:30:17;;;;;;;9.00;2.80;;;;;23.70;100942.40;;;;94594;1193;92379;-59
2021/08/10 01:32:18;;;;;;;10.60;2.60;;;;;23.70;100942.80;;;;94388;1193;92386;-52
2021/08/10 01:34:26;;;;;;;6.90;2.20;;;;;23.70;100940.60;;;;94410;1201;93435;-52
2021/08/10 01:36:28;;;;;;;9.70;3.20;;;;;23.70;100939.40;;;;94562;1201;93341;-59
2021/08/10 01:38:30;;;;;;;10.40;2.60;;;;;23.70;100939.60;;;;94150;1195;92287;-58
2021/08/10 01:40:31;;;;;;;6.70;2.30;;;;;23.70;100943.20;;;;94381;1201;93105;-59
2021/08/10 01:42:33;;;;;;;7.50;3.00;;;;;23.70;100944.20;;;;94545;1194;92344;-53
2021/08/10 01:44:34;;;;;;;7.50;2.90;;;;;23.70;100943.00;;;;94067;1202;92631;-52
2021/08/10 01:46:36;;;;;;;7.50;2.70;;;;;23.70;100940.20;;;;94404;1202;93287;-52
2021/08/10 01:48:37;;;;;;;8.10;2.70;;;;;23.70;100943.20;;;;94140;1196;92478;-52
2021/08/10 01:50:39;;;;;;;7.90;2.70;;;;;23.70;100938.60;;;;94115;1201;93444;-59
2021/08/10 01:52:41;;;;;;;7.80;3.00;;;;;23.70;100936.20;;;;94579;1194;92808;-59
2021/08/10 01:54:43;;;;;;;8.20;2.90;;;;;23.70;100935.40;;;;94556;1193;92544;-59
2021/08/10 01:56:44;;;;;;;7.70;2.80;;;;;23.70;100936.00;;;;94136;1202;93799;-52
2021/08/10 01:58:46;;;;;;;7.80;2.90;;;;;23.70;100934.80;;;;94425;1195;92508;-52
2021/08/10 02:00:48;;;;;;;9.00;2.60;;;;;23.68;100932.00;;;;94405;1195;93350;-52
2021/08/10 02:02:49;;;;;;;8.60;2.70;;;;;23.64;100935.20;;;;94398;1202;92900;-52
2021/08/10 02:04:52;;;;;;;8.20;3.30;;;;;23.68;100936.20;;;;94408;1202;93301;-52
2021/08/10 02:06:54;;;;;;;9.20;3.40;;;;;23.64;100937.60;;;;94417;1201;93431;-52
2021/08/10 02:08:58;;;;;;;7.40;2.90;;;;;23.62;100939.40;;;;94551;1200;94150;-52
2021/08/10 02:11:00;;;;;;;8.90;3.20;;;;;23.60;100941.80;;;;94567;1202;92965;-59
2021/08/10 02:13:02;;;;;;;7.60;2.80;;;;;23.60;100940.20;;;;94564;1200;93731;-59
2021/08/10 02:15:04;;;;;;;6.30;2.40;;;;;23.60;100941.00;;;;94574;1200;92263;-54
2021/08/10 02:17:06;;;;;;;6.50;2.50;;;;;23.60;100944.20;;;;94589;1193;93482;-59
2021/08/10 02:19:08;;;;;;;8.10;3.00;;;;;23.60;100941.60;;;;94584;1194;92485;-59
2021/08/10 02:21:12;;;;;;;8.80;3.10;;;;;23.60;100943.20;;;;94535;1194;92551;-52
2021/08/10 02:23:16;;;;;;;7.80;2.80;;;;;23.60;100935.60;;;;94378;1201;93232;-52
2021/08/10 02:25:21;;;;;;;6.90;2.60;;;;;23.60;100936.60;;;;94356;1201;93383;-52
2021/08/10 02:27:56;;;;;;;7.20;2.80;;;;;23.60;100934.40;;;;94374;1201;93259;-52
2021/08/10 02:29:57;;;;;;;8.70;2.80;;;;;23.60;100936.80;;;;94564;1196;92857;-52
2021/08/10 02:31:59;;;;;;;8.00;2.80;;;;;23.60;100938.80;;;;94122;1202;93414;-59
2021/08/10 02:34:01;;;;;;;6.30;2.60;;;;;23.60;100941.20;;;;94157;1202;92540;-59
2021/08/10 02:36:02;;;;;;;7.90;2.70;;;;;23.60;100942.20;;;;94371;1201;94279;-58
2021/08/10 02:38:06;;;;;;;7.30;3.10;;;;;23.60;100942.40;;;;94360;1196;92309;-60
2021/08/10 02:40:09;;;;;;;7.40;2.60;;;;;23.60;100936.00;;;;94364;1201;93887;-59
2021/08/10 02:42:11;;;;;;;6.90;2.90;;;;;23.60;100934.60;;;;94603;1201;93437;-58
2021/08/10 02:44:12;;;;;;;6.80;2.40;;;;;23.60;100932.80;;;;94563;1193;92512;-59
2021/08/10 02:46:14;;;;;;;7.20;2.50;;;;;23.60;100930.60;;;;94152;1201;93282;-52
2021/08/10 02:48:15;;;;;;;7.70;3.10;;;;;23.60;100924.40;;;;94536;1202;93649;-52
2021/08/10 02:50:17;;;;;;;8.80;3.20;;;;;23.60;100920.00;;;;94556;1193;92474;-52
2021/08/10 02:52:19;;;;;;;8.20;2.80;;;;;23.60;100920.60;;;;94573;1201;93282;-52
2021/08/10 02:54:21;;;;;;;8.20;2.80;;;;;23.60;100920.60;;;;94541;1201;93499;-52
2021/08/10 02:56:23;;;;;;;7.50;3.00;;;;;23.60;100918.80;;;;94383;1201;93453;-52
2021/08/10 02:58:26;;;;;;;8.10;2.80;;;;;23.60;100919.80;;;;94574;1201;93201;-52
2021/08/10 03:00:29;;;;;;;8.90;2.60;;;;;23.60;100920.40;;;;94621;1202;93215;-52
2021/08/10 03:02:42;;;;;;;6.70;2.70;;;;;23.58;100919.20;;;;94573;1202;93361;-51
2021/08/10 03:04:51;;;;;;;7.40;2.60;;;;;23.60;100920.00;;;;94567;1201;93179;-52
2021/08/10 03:06:53;;;;;;;11.00;3.10;;;;;23.58;100921.00;;;;94414;1194;92561;-59
2021/08/10 03:08:58;;;;;;;7.30;2.80;;;;;23.52;100917.20;;;;94553;1193;93275;-59
2021/08/10 03:10:59;;;;;;;7.70;3.10;;;;;23.52;100916.20;;;;94571;1193;92500;-59
2021/08/10 03:13:03;;;;;;;8.70;2.70;;;;;23.54;100924.00;;;;94137;1202;92579;-59
2021/08/10 03:15:05;;;;;;;8.50;2.80;;;;;23.50;100922.00;;;;94595;1194;93243;-58
2021/08/10 03:17:06;;;;;;;7.00;2.70;;;;;23.50;100922.80;;;;94412;1202;93464;-58
2021/08/10 03:19:08;;;;;;;8.10;2.70;;;;;23.50;100921.20;;;;94091;1197;93622;-59
2021/08/10 03:21:09;;;;;;;9.00;3.10;;;;;23.50;100920.40;;;;94400;1201;93593;-52
2021/08/10 03:23:14;;;;;;;8.10;2.90;;;;;23.50;100922.60;;;;94392;1196;92256;-52
2021/08/10 03:25:17;;;;;;;7.00;2.70;;;;;23.50;100925.20;;;;94420;1201;91990;-58
2021/08/10 03:27:19;;;;;;;7.30;2.50;;;;;23.50;100924.00;;;;94594;1193;92354;-59
2021/08/10 03:29:21;;;;;;;6.90;3.00;;;;;23.50;100922.40;;;;94540;1201;93275;-58
2021/08/10 03:31:22;;;;;;;5.50;2.30;;;;;23.50;100921.40;;;;94541;1200;92809;-59
2021/08/10 03:33:25;;;;;;;6.50;2.50;;;;;23.50;100926.80;;;;94406;1201;92116;-59
2021/08/10 03:35:28;;;;;;;10.00;3.00;;;;;23.50;100926.80;;;;94564;1193;92398;-58
2021/08/10 03:37:30;;;;;;;7.90;2.80;;;;;23.50;100924.20;;;;94593;1194;92438;-59
2021/08/10 03:39:31;;;;;;;9.70;3.00;;;;;23.50;100926.60;;;;94517;1201;93424;-58
2021/08/10 03:41:33;;;;;;;10.60;3.10;;;;;23.50;100925.40;;;;94392;1194;93278;-59
2021/08/10 03:43:35;;;;;;;7.30;2.50;;;;;23.50;100925.20;;;;94403;1201;92524;-58
2021/08/10 03:45:37;;;;;;;6.90;2.70;;;;;23.50;100923.60;;;;94541;1201;93197;-59
2021/08/10 03:47:38;;;;;;;7.40;3.00;;;;;23.50;100923.40;;;;94397;1201;93848;-59
2021/08/10 03:49:40;;;;;;;7.90;2.70;;;;;23.50;100923.60;;;;94097;1195;92262;-58
2021/08/10 03:51:43;;;;;;;7.80;2.50;;;;;23.50;100923.20;;;;94574;1201;93461;-52
2021/08/10 03:53:45;;;;;;;7.70;2.80;;;;;23.50;100922.80;;;;94545;1194;92164;-52
2021/08/10 03:55:49;;;;;;;5.80;2.30;;;;;23.50;100920.80;;;;94395;1201;92625;-51
2021/08/10 03:57:51;;;;;;;7.30;2.70;;;;;23.50;100921.40;;;;94416;1201;93210;-52
2021/08/10 03:59:54;;;;;;;7.30;2.60;;;;;23.50;100920.80;;;;94111;1201;93135;-52
2021/08/10 04:01:55;;;;;;;10.20;2.60;;;;;23.50;100919.80;;;;94586;1200;93653;-58
2021/08/10 04:03:57;;;;;;;7.40;2.70;;;;;23.50;100918.00;;;;94144;1201;92538;-59
2021/08/10 04:05:59;;;;;;;7.40;2.90;;;;;23.50;100918.00;;;;94401;1201;93227;-58
2021/08/10 04:08:01;;;;;;;6.30;2.50;;;;;23.50;100914.20;;;;94132;1196;92422;-58
2021/08/10 04:10:03;;;;;;;8.00;2.70;;;;;23.50;100916.20;;;;94395;1196;93108;-53
2021/08/10 04:12:06;;;;;;;7.10;2.70;;;;;23.50;100911.80;;;;94568;1201;93298;-59
2021/08/10 04:14:08;;;;;;;6.90;2.40;;;;;23.50;100912.00;;;;94550;1193;92536;-59
2021/08/10 04:16:09;;;;;;;7.20;3.10;;;;;23.50;100913.40;;;;94426;1193;92613;-52
2021/08/10 04:18:17;;;;;;;7.20;2.50;;;;;23.50;100913.80;;;;94373;1196;92145;-52
2021/08/10 04:20:19;;;;;;;6.00;2.50;;;;;23.50;100910.80;;;;94544;1201;93362;-52
2021/08/10 04:22:20;;;;;;;7.50;2.60;;;;;23.50;100911.20;;;;94571;1193;92474;-52
2021/08/10 04:24:22;;;;;;;7.10;2.80;;;;;23.50;100909.20;;;;94550;1193;92529;-52
2021/08/10 04:26:23;;;;;;;7.20;2.70;;;;;23.50;100904.20;;;;94536;1200;93464;-53
2021/08/10 04:28:25;;;;;;;6.70;2.40;;;;;23.50;100907.60;;;;94549;1192;92172;-52
2021/08/10 04:30:26;;;;;;;7.60;2.50;;;;;23.50;100904.00;;;;94599;1201;93291;-58
2021/08/10 04:32:28;;;;;;;5.80;2.60;;;;;23.50;100908.40;;;;94556;1201;93287;-59
2021/08/10 04:34:29;;;;;;;6.70;2.60;;;;;23.50;100910.20;;;;94567;1200;92443;-59
2021/08/10 04:36:30;;;;;;;5.50;2.30;;;;;23.50;100909.00;;;;94540;1193;92440;-53
2021/08/10 04:38:32;;;;;;;5.70;2.40;;;;;23.50;100913.40;;;;94547;1193;92230;-51
2021/08/10 04:40:33;;;;;;;5.40;2.40;;;;;23.50;100912.60;;;;94572;1193;92462;-53
2021/08/10 04:42:35;;;;;;;7.20;2.60;;;;;23.50;100909.20;;;;94551;1193;92551;-52
2021/08/10 04:44:37;;;;;;;6.30;2.50;;;;;23.52;100910.20;;;;94572;1201;92644;-52
2021/08/10 04:46:39;;;;;;;6.10;2.40;;;;;23.52;100912.20;;;;94598;1201;93121;-60
2021/08/10 04:48:40;;;;;;;6.70;2.40;;;;;23.50;100912.00;;;;94559;1201;92550;-59
2021/08/10 04:50:41;;;;;;;5.70;2.40;;;;;23.60;100915.80;;;;94552;1201;93258;-58
2021/08/10 04:52:43;;;;;;;7.10;2.10;;;;;23.58;100917.00;;;;94555;1200;93108;-59
2021/08/10 04:54:44;;;;;;;8.70;2.90;;;;;23.56;100915.40;;;;94548;1201;93465;-59
2021/08/10 04:56:46;;;;;;;7.20;2.70;;;;;23.52;100911.20;;;;94588;1201;93208;-52
2021/08/10 04:58:47;;;;;;;6.60;2.10;;;;;23.50;100913.20;;;;94551;1201;92507;-52
2021/08/10 05:00:50;;;;;;;5.60;2.30;;;;;23.56;100919.80;;;;94577;1201;93276;-52
2021/08/10 05:02:52;;;;;;;5.50;2.20;;;;;23.60;100918.40;;;;94572;1201;93359;-52
2021/08/10 05:04:53;;;;;;;5.80;2.30;;;;;23.60;100919.20;;;;94569;1193;92487;-52
2021/08/10 05:06:55;;;;;;;5.90;2.30;;;;;23.60;100915.80;;;;94560;1201;93272;-52
2021/08/10 05:08:56;;;;;;;7.40;2.40;;;;;23.60;100916.20;;;;94526;1201;92096;-52
2021/08/10 05:10:59;;;;;;;8.50;2.60;;;;;23.60;100918.80;;;;94574;1201;92823;-52
2021/08/10 05:13:00;;;;;;;8.20;2.50;;;;;23.60;100917.60;;;;94534;1193;92152;-53
2021/08/10 05:15:02;;;;;;;7.40;2.60;;;;;23.60;100919.80;;;;94588;1201;93205;-55
2021/08/10 05:17:06;;;;;;;6.60;2.60;;;;;23.60;100925.80;;;;94521;1201;92483;-52
2021/08/10 05:19:08;;;;;;;6.80;2.30;;;;;23.60;100928.00;;;;94583;1201;94030;-53
2021/08/10 05:21:09;;;;;;;7.30;3.00;;;;;23.60;100927.00;;;;94576;1201;92680;-54
2021/08/10 05:23:11;;;;;;;7.20;2.20;;;;;23.60;100925.20;;;;94545;1200;93821;-53
2021/08/10 05:25:12;;;;;;;7.10;2.50;;;;;23.60;100927.20;;;;94567;1193;92409;-53
2021/08/10 05:27:14;;;;;;;7.10;2.00;;;;;23.60;100926.80;;;;94572;1201;93429;-53
2021/08/10 05:29:15;;;;;;;8.60;2.80;;;;;23.60;100925.60;;;;94404;1194;92330;-54
2021/08/10 05:31:17;;;;;;;6.60;2.60;;;;;23.60;100924.20;;;;94563;1201;93454;-53
2021/08/10 05:33:18;;;;;;;7.50;3.00;;;;;23.60;100923.40;;;;94554;1201;92522;-53
2021/08/10 05:35:20;;;;;;;7.90;2.50;;;;;23.60;100925.60;;;;94525;1201;93449;-53
2021/08/10 05:37:21;;;;;;;7.60;2.50;;;;;23.60;100927.80;;;;94557;1200;93316;-53
2021/08/10 05:39:23;;;;;;;6.80;2.10;;;;;23.60;100926.60;;;;94557;1201;92484;-53
2021/08/10 05:41:24;;;;;;;6.20;2.20;;;;;23.66;100925.40;;;;94579;1201;93358;-52
2021/08/10 05:43:26;;;;;;;5.80;2.30;;;;;23.70;100925.60;;;;94590;1193;92250;-52
2021/08/10 05:45:27;;;;;;;6.10;2.20;;;;;23.70;100924.80;;;;94538;1192;92380;-58
2021/08/10 05:47:28;;;;;;;5.70;2.40;;;;;23.70;100927.20;;;;94573;1201;93424;-59
2021/08/10 05:49:30;;;;;;;6.80;2.70;;;;;23.70;100924.60;;;;94413;1201;93440;-59
2021/08/10 05:51:31;;;;;;;7.90;2.20;;;;;23.70;100916.20;;;;94522;1200;93201;-52
2021/08/10 05:53:33;;;;;;;6.80;2.30;;;;;23.70;100917.80;;;;94536;1201;92506;-52
2021/08/10 05:55:35;;;;;;;6.50;2.50;;;;;23.70;100917.20;;;;94555;1201;93411;-52
2021/08/10 05:57:36;;;;;;;7.60;2.40;;;;;23.70;100917.80;;;;94540;1193;93477;-52
2021/08/10 05:59:38;;;;;;;5.40;2.20;;;;;23.74;100914.20;;;;94533;1193;92384;-52
2021/08/10 06:01:39;;;;;;;7.00;2.60;;;;;23.80;100914.40;;;;94572;1201;93211;-52
2021/08/10 06:03:40;;;;;;;7.30;2.40;;;;;23.80;100915.20;;;;94546;1201;93617;-52
2021/08/10 06:05:42;;;;;;;6.80;2.40;;;;;23.80;100914.60;;;;94539;1193;92253;-52
2021/08/10 06:07:44;;;;;;;7.80;2.70;;;;;23.80;100914.80;;;;94584;1201;93425;-52
2021/08/10 06:09:45;;;;;;;6.30;2.20;;;;;23.80;100918.60;;;;94541;1201;92483;-52
2021/08/10 06:11:47;;;;;;;6.40;2.30;;;;;23.80;100914.80;;;;94578;1195;92548;-52
2021/08/10 06:13:48;;;;;;;6.50;2.60;;;;;23.80;100915.80;;;;94541;1201;93232;-51
2021/08/10 06:15:50;;;;;;;7.30;2.60;;;;;23.80;100916.00;;;;94575;1201;93439;-58
2021/08/10 06:17:52;;;;;;;5.60;2.30;;;;;23.84;100915.40;;;;94547;1201;93480;-59
2021/08/10 06:19:54;;;;;;;5.70;2.10;;;;;23.90;100917.20;;;;94550;1201;92323;-58
2021/08/10 06:21:55;;;;;;;5.20;2.20;;;;;23.90;100913.60;;;;94597;1201;93422;-51
2021/08/10 06:23:57;;;;;;;6.60;2.70;;;;;23.90;100910.00;;;;94553;1194;93320;-51
2021/08/10 06:25:58;;;;;;;7.00;2.20;;;;;23.90;100912.20;;;;94560;1201;93696;-58
2021/08/10 06:28:00;;;;;;;5.70;2.50;;;;;23.90;100914.20;;;;94525;1193;92329;-59
2021/08/10 06:30:02;;;;;;;5.00;1.80;;;;;23.90;100910.80;;;;94535;1201;93129;-58
2021/08/10 06:32:05;;;;;;;7.00;2.50;;;;;23.90;100912.60;;;;94532;1201;93215;-51
2021/08/10 06:34:07;;;;;;;6.70;2.20;;;;;23.90;100910.20;;;;94558;1192;92025;-52
2021/08/10 06:36:09;;;;;;;6.80;2.30;;;;;23.90;100912.80;;;;94119;1201;93410;-59
2021/08/10 06:38:10;;;;;;;6.20;2.30;;;;;23.90;100912.80;;;;94547;1194;92580;-59
2021/08/10 06:40:12;;;;;;;6.60;2.50;;;;;23.90;100911.00;;;;94562;1193;92521;-58
2021/08/10 06:42:16;;;;;;;6.60;2.50;;;;;23.90;100914.80;;;;94561;1193;92246;-59
2021/08/10 06:44:18;;;;;;;9.00;2.50;;;;;23.90;100915.00;;;;94398;1193;92287;-59
2021/08/10 06:46:20;;;;;;;6.00;2.20;;;;;24.00;100917.20;;;;94548;1201;92513;-59
2021/08/10 06:48:22;;;;;;;6.30;2.40;;;;;24.00;100908.80;;;;94528;1201;92841;-59
2021/08/10 06:50:23;;;;;;;6.40;2.10;;;;;24.00;100908.00;;;;94539;1201;93688;-58
2021/08/10 06:52:25;;;;;;;6.20;2.30;;;;;24.00;100908.00;;;;94402;1201;93418;-58
2021/08/10 06:54:26;;;;;;;6.50;2.20;;;;;24.00;100907.40;;;;94537;1200;92512;-58
2021/08/10 06:56:28;;;;;;;7.50;2.50;;;;;24.00;100907.00;;;;94544;1200;93274;-52
2021/08/10 06:58:29;;;;;;;5.90;2.30;;;;;24.00;100909.80;;;;94514;1193;92038;-52
2021/08/10 07:00:31;;;;;;;7.10;2.00;;;;;24.08;100907.00;;;;94521;1200;93427;-52
2021/08/10 07:02:32;;;;;;;6.20;2.40;;;;;24.10;100904.20;;;;94535;1200;95108;-52
2021/08/10 07:04:35;;;;;;;5.90;2.20;;;;;24.10;100903.00;;;;94534;1201;92587;-52
2021/08/10 07:06:37;;;;;;;5.90;2.30;;;;;24.10;100902.20;;;;94582;1201;92263;-59
2021/08/10 07:08:38;;;;;;;6.00;2.20;;;;;24.10;100898.20;;;;94549;1201;92486;-59
2021/08/10 07:10:40;;;;;;;5.70;2.00;;;;;24.10;100894.20;;;;94521;1200;93415;-59
2021/08/10 07:12:41;;;;;;;6.00;2.00;;;;;24.20;100890.60;;;;94585;1193;92407;-59
2021/08/10 07:14:43;;;;;;;6.50;2.30;;;;;24.20;100894.40;;;;94563;1201;93410;-59
2021/08/10 07:16:44;;;;;;;6.00;2.30;;;;;24.20;100891.60;;;;94580;1201;92734;-52
2021/08/10 07:18:46;;;;;;;5.90;2.00;;;;;24.20;100892.80;;;;94581;1201;92581;-52
2021/08/10 07:20:47;;;;;;;6.00;2.00;;;;;24.20;100897.20;;;;94565;1201;93436;-59
2021/08/10 07:22:49;;;;;;;6.60;2.20;;;;;24.20;100892.60;;;;94552;1201;93195;-59
2021/08/10 07:24:50;;;;;;;8.20;2.10;;;;;24.28;100891.80;;;;94537;1201;92187;-59
2021/08/10 07:26:52;;;;;;;5.00;1.90;;;;;24.28;100887.60;;;;94559;1201;93665;-59
2021/08/10 07:28:54;;;;;;;7.30;2.40;;;;;24.30;100889.40;;;;94579;1192;92971;-59
2021/08/10 07:30:55;;;;;;;5.50;1.90;;;;;24.30;100883.20;;;;94547;1193;92539;-59
2021/08/10 07:32:57;;;;;;;6.30;2.00;;;;;24.30;100885.20;;;;94561;1193;92407;-59
2021/08/10 07:34:59;;;;;;;5.40;2.10;;;;;24.30;100883.60;;;;94556;1201;92866;-59
2021/08/10 07:37:00;;;;;;;7.20;2.10;;;;;24.30;100877.00;;;;94553;1194;92301;-59
2021/08/10 07:39:02;;;;;;;6.70;2.50;;;;;24.30;100879.00;;;;94546;1201;93458;-59
2021/08/10 07:41:03;;;;;;;6.90;2.20;;;;;24.30;100878.80;;;;94530;1200;93449;-59
2021/08/10 07:43:05;;;;;;;8.80;2.20;;;;;24.30;100875.80;;;;94554;1201;92466;-59
2021/08/10 07:45:06;;;;;;;11.00;3.10;;;;;24.30;100874.00;;;;94514;1201;93125;-53
2021/08/10 07:47:08;;;;;;;7.70;2.60;;;;;24.30;100879.40;;;;94558;1201;92501;-53
2021/08/10 07:49:09;;;;;;;7.40;2.50;;;;;24.38;100882.00;;;;94571;1201;92508;-53
2021/08/10 07:51:11;;;;;;;11.80;3.40;;;;;24.40;100884.00;;;;94584;1192;92508;-53
2021/08/10 07:53:12;;;;;;;9.60;2.80;;;;;24.38;100888.60;;;;94529;1200;94055;-53
2021/08/10 07:55:14;;;;;;;9.50;3.40;;;;;24.40;100885.80;;;;94565;1200;93426;-53
2021/08/10 07:57:16;;;;;;;8.20;2.70;;;;;24.40;100888.00;;;;94570;1200;92043;-53
2021/08/10 07:59:23;;;;;;;9.20;2.80;;;;;24.40;100888.60;;;;94490;1194;93364;-55
2021/08/10 08:01:55;;;;;;;10.90;3.50;;;;;24.40;100895.20;;;;94377;1201;93530;-54
2021/08/10 08:03:57;;;;;;;12.70;3.40;;;;;24.40;100897.00;;;;94557;1201;93881;-53
2021/08/10 08:05:58;;;;;;;10.30;3.20;;;;;24.40;100898.80;;;;94547;1201;94190;-60
2021/08/10 08:08:00;;;;;;;8.70;3.20;;;;;24.40;100896.40;;;;94560;1200;93872;-55
2021/08/10 08:10:02;;;;;;;11.60;3.70;;;;;24.48;100895.40;;;;94563;1201;92762;-55
2021/08/10 08:12:06;;;;;;;10.30;3.10;;;;;24.50;100892.00;;;;94539;1201;93846;-55
2021/08/10 08:14:08;;;;;;;9.50;3.30;;;;;24.54;100892.20;;;;94560;1193;92513;-59
2021/08/10 08:16:09;;;;;;;13.60;3.60;;;;;24.60;100884.60;;;;94554;1201;93434;-50
2021/08/10 08:18:10;;;;;;;13.50;3.20;;;;;24.60;100885.00;;;;94548;1201;93261;-51
2021/08/10 08:20:12;;;;;;;14.80;3.90;;;;;24.60;100887.20;;;;94579;1193;92501;-50
2021/08/10 08:22:13;;;;;;;10.00;3.50;;;;;24.60;100888.80;;;;94561;1201;93445;-51
2021/08/10 08:24:15;;;;;;;9.50;3.40;;;;;24.68;100881.40;;;;94547;1193;92328;-51
2021/08/10 08:26:21;;;;;;;9.70;3.20;;;;;24.80;100889.00;;;;94525;1193;92542;-54
2021/08/10 08:28:23;;;;;;;12.90;3.30;;;;;24.80;100888.60;;;;94589;1193;92548;-55
2021/08/10 08:30:24;;;;;;;9.10;2.60;;;;;24.80;100892.60;;;;94524;1201;93243;-50
2021/08/10 08:32:26;;;;;;;10.40;2.70;;;;;24.80;100889.80;;;;94559;1201;93213;-50
2021/08/10 08:34:27;;;;;;;9.20;3.20;;;;;24.80;100888.40;;;;94087;1201;93203;-52
2021/08/10 08:36:29;;;;;;;9.20;2.50;;;;;24.80;100891.00;;;;94518;1201;93435;-50
2021/08/10 08:38:30;;;;;;;10.90;3.40;;;;;24.90;100892.20;;;;94553;1201;92427;-50
2021/08/10 08:40:35;;;;;;;13.10;2.60;;;;;24.80;100890.00;;;;94552;1201;92754;-51
2021/08/10 08:42:37;;;;;;;9.10;2.40;;;;;24.80;100891.40;;;;94418;1201;94231;-52
2021/08/10 08:44:38;;;;;;;9.50;2.90;;;;;24.80;100891.80;;;;94415;1201;93224;-53
2021/08/10 08:46:40;;;;;;;9.00;2.60;;;;;24.80;100893.00;;;;94553;1201;93590;-56
2021/08/10 08:48:46;;;;;;;11.10;2.60;;;;;24.82;100891.60;;;;94523;1201;93414;-52
2021/08/10 08:50:50;;;;;;;8.20;2.80;;;;;24.90;100890.60;;;;94389;1201;93228;-59
2021/08/10 08:52:53;;;;;;;8.80;2.50;;;;;24.80;100893.00;;;;94566;1192;92321;-61
2021/08/10 08:54:54;;;;;;;8.60;2.80;;;;;24.80;100892.60;;;;94531;1200;93320;-60
2021/08/10 08:56:56;;;;;;;8.10;2.40;;;;;24.70;100891.80;;;;94403;1201;93217;-53
2021/08/10 08:58:57;;;;;;;9.70;2.50;;;;;24.60;100889.60;;;;94546;1193;92080;-53
2021/08/10 09:00:59;;;;;;;12.10;2.90;;;;;24.70;100887.60;;;;94383;1201;93470;-53
2021/08/10 09:03:00;;;;;;;8.60;3.00;;;;;24.70;100882.80;;;;94548;1193;93283;-53
2021/08/10 09:05:02;;;;;;;8.20;2.50;;;;;24.80;100881.80;;;;94553;1201;92516;-55
2021/08/10 09:07:04;;;;;;;9.50;2.40;;;;;24.86;100877.60;;;;94506;1201;93334;-60
2021/08/10 09:09:25;;;;;;;7.90;2.50;;;;;24.86;100881.60;;;;94554;1192;92542;-59
2021/08/10 09:11:27;;;;;;;21.40;5.10;;;;;24.80;100878.20;;;;94575;1192;92096;-57
2021/08/10 09:13:29;;;;;;;12.50;3.60;;;;;24.70;100875.00;;;;94573;1201;92497;-58
2021/08/10 09:15:32;;;;;;;14.60;4.10;;;;;24.60;100878.20;;;;94585;1201;93403;-58
2021/08/10 09:17:34;;;;;;;12.30;3.30;;;;;24.50;100874.60;;;;94590;1201;92974;-53
2021/08/10 09:19:39;;;;;;;14.90;4.20;;;;;24.58;100878.20;;;;94533;1200;93346;-52
2021/08/10 09:21:41;;;;;;;11.50;3.40;;;;;24.70;100878.60;;;;94575;1200;93470;-52
2021/08/10 09:23:50;;;;;;;13.80;3.80;;;;;24.60;100877.60;;;;94560;1200;93474;-52
2021/08/10 09:25:53;;;;;;;10.10;3.00;;;;;24.50;100872.60;;;;94556;1201;92670;-52
2021/08/10 09:28:05;;;;;;;18.00;3.90;;;;;24.56;100872.60;;;;94546;1201;92679;-48
2021/08/10 13:12:57;;;;;;;6.50;2.30;;;;;;;;;;92664;1209;594350;-48
2021/08/10 13:15:05;;;;;;;27.00;9.30;;;;;;;;;;94081;1208;61757;-44
2021/08/10 22:11:50;;;;;;;;;;;;;;;;;;92934;1217;594085;-43
2021/08/10 22:13:51;;;;;;;;;;;;;;;;;;94202;1205;61921;-43
2021/08/10 22:15:53;;;;;;;;;;;;;;;;;;94205;1204;61810;-51
2021/08/10 22:17:54;;;;;;;;;;;;;;;;;;94239;1204;61899;-50
2021/08/10 22:19:56;;;;;;;;;;;;;;;;;;94224;1204;62168;-48
2021/08/10 22:21:57;;;;;;;;;;;;;;;;;;94227;1205;61923;-50
